Time;durP1;ratioP1;P1;durP2;ratioP2;P2;SDS_P1;SDS_P2;PMS_P1;PMS_P2;Temp;Humidity;BMP_temperature;BMP_pressure;BME280_temperature;BME280_humidity;BME280_pressure;Samples;Min_cycle;Max_cycle;Signal;HPM_P1;HPM_P2
2023/01/08 00:00:45;;;;;;;24.32;11.03;;;;;;;-9.27;67.59;102431.58;1657903;86;21237;-56
2023/01/08 00:03:51;;;;;;;19.32;9.90;;;;;;;-9.27;67.59;102431.58;1657946;86;21289;-56
2023/01/08 00:06:59;;;;;;;19.25;10.28;;;;;;;-9.27;67.47;102435.56;1689798;83;21322;-56
2023/01/08 00:10:05;;;;;;;19.80;10.70;;;;;;;-9.26;67.48;102435.12;1689501;84;21375;-56
2023/01/08 00:13:13;;;;;;;24.37;10.58;;;;;;;-9.26;67.47;102442.66;1689862;84;21469;-55
2023/01/08 00:16:21;;;;;;;19.92;10.40;;;;;;;-9.29;67.59;102445.27;1689511;85;21345;-55
2023/01/08 00:19:26;;;;;;;19.30;9.93;;;;;;;-9.29;67.59;102445.27;1689543;83;21905;-56
2023/01/08 00:22:32;;;;;;;19.98;10.13;;;;;;;-9.31;67.42;102447.07;1689613;85;21258;-56
2023/01/08 00:25:39;;;;;;;20.40;9.48;;;;;;;-9.37;67.33;102448.41;1689844;83;21365;-55
2023/01/08 00:28:45;;;;;;;28.50;11.05;;;;;;;-9.40;67.35;102441.32;1689632;85;21231;-56
2023/01/08 00:31:54;;;;;;;23.05;11.70;;;;;;;-9.44;67.19;102442.66;1689748;84;21278;-56
2023/01/08 00:35:00;;;;;;;24.55;11.78;;;;;;;-9.51;67.24;102428.95;1689598;85;21258;-57
2023/01/08 00:38:06;;;;;;;25.48;9.95;;;;;;;-9.47;67.43;102427.65;1689654;84;21653;-56
2023/01/08 00:41:13;;;;;;;22.05;10.90;;;;;;;-9.39;67.49;102425.84;1690985;82;21239;-56
2023/01/08 00:44:19;;;;;;;23.85;11.85;;;;;;;-9.34;67.47;102427.19;1692141;84;21223;-56
2023/01/08 00:47:25;;;;;;;21.48;10.18;;;;;;;-9.27;67.48;102426.28;1691791;84;21326;-58
2023/01/08 00:50:31;;;;;;;21.65;10.15;;;;;;;-9.20;67.51;102425.83;1692384;83;21211;-57
2023/01/08 00:53:39;;;;;;;23.62;10.38;;;;;;;-9.15;67.50;102420.97;1691868;85;21187;-58
2023/01/08 00:56:46;;;;;;;24.10;11.25;;;;;;;-9.13;67.38;102427.13;1691721;84;21685;-56
2023/01/08 00:59:52;;;;;;;27.00;10.95;;;;;;;-9.10;67.29;102421.82;1691780;84;21768;-56
2023/01/08 01:02:59;;;;;;;26.52;11.18;;;;;;;-9.00;67.07;102405.01;1691676;83;21275;-56
2023/01/08 01:06:09;;;;;;;27.17;11.63;;;;;;;-8.98;67.39;102404.57;1692149;83;21255;-55
2023/01/08 01:09:17;;;;;;;18.42;9.38;;;;;;;-8.98;67.39;102404.57;1709979;83;21227;-57
2023/01/08 01:12:23;;;;;;;20.02;10.63;;;;;;;-8.94;67.24;102405.45;1691880;83;21904;-56
2023/01/08 01:15:29;;;;;;;22.77;11.25;;;;;;;-8.91;67.15;102406.30;1691898;83;21219;-56
2023/01/08 01:18:29;;;;;;;23.90;11.33;;;;;;;-8.91;67.15;102415.58;1691722;85;21736;-56
2023/01/08 01:21:36;;;;;;;25.08;11.28;;;;;;;-8.90;67.08;102413.83;1691658;83;21750;-56
2023/01/08 01:24:42;;;;;;;22.58;10.90;;;;;;;-8.92;67.04;102423.11;1691930;85;21296;-55
2023/01/08 01:27:47;;;;;;;26.25;12.30;;;;;;;-8.86;66.95;102423.55;1709995;82;21219;-55
2023/01/08 01:31:02;;;;;;;23.87;12.33;;;;;;;-8.86;66.95;102423.55;1691735;85;21299;-55
2023/01/08 01:34:07;;;;;;;21.77;11.40;;;;;;;-8.92;66.92;102412.94;1691798;85;21211;-56
2023/01/08 01:37:13;;;;;;;20.77;11.95;;;;;;;-8.88;66.99;102407.64;1691623;83;21243;-56
2023/01/08 01:40:18;;;;;;;25.92;12.55;;;;;;;-8.85;66.98;102398.78;1691936;84;21235;-56
2023/01/08 01:43:45;;;;;;;22.82;11.78;;;;;;;-8.78;67.03;102397.88;1660449;86;21259;-56
2023/01/08 01:46:51;;;;;;;23.62;11.28;;;;;;;-8.74;67.02;102396.53;1660288;86;21239;-56
2023/01/08 01:50:14;;;;;;;20.68;11.48;;;;;;;-8.68;67.03;102392.52;1660300;86;21200;-57
2023/01/08 01:53:23;;;;;;;;;;;;;;;-8.62;67.12;102396.90;1662892;85;21717;-55
2023/01/08 01:56:28;;;;;;;25.80;11.38;;;;;;;-8.61;66.96;102396.89;1660312;86;20577;-56
2023/01/08 01:59:34;;;;;;;24.72;12.10;;;;;;;-8.66;67.02;102409.76;1660504;86;21555;-55
2023/01/08 02:02:40;;;;;;;27.65;12.15;;;;;;;-8.72;66.80;102409.33;1660277;86;21279;-56
2023/01/08 02:06:08;;;;;;;25.48;12.00;;;;;;;-8.72;66.80;102409.33;1660635;86;21279;-56
2023/01/08 02:09:43;;;;;;;24.95;12.65;;;;;;;-8.71;66.74;102423.05;1660368;86;21219;-56
2023/01/08 02:12:56;;;;;;;24.35;12.00;;;;;;;-8.75;66.85;102434.55;1660318;85;21806;-55
2023/01/08 02:16:06;;;;;;;25.17;11.43;;;;;;;-8.75;66.85;102434.55;1660544;85;21239;-56
2023/01/08 02:19:46;;;;;;;22.50;12.10;;;;;;;-8.75;66.78;102425.73;1660431;85;21240;-56
2023/01/08 02:23:38;;;;;;;31.27;12.95;;;;;;;-8.73;66.85;102440.74;1660353;86;21286;-56
2023/01/08 02:26:43;;;;;;;23.22;11.90;;;;;;;-8.71;66.91;102441.63;1660136;86;21251;-56
2023/01/08 02:29:49;;;;;;;25.95;11.97;;;;;;;-8.75;66.82;102447.81;1660562;85;21271;-56
2023/01/08 02:32:55;;;;;;;25.30;13.18;;;;;;;-8.90;66.53;102442.57;1660244;86;21276;-56
2023/01/08 02:36:24;;;;;;;23.45;11.68;;;;;;;-8.96;66.43;102451.88;1660318;85;21283;-56
2023/01/08 02:40:13;;;;;;;30.80;12.58;;;;;;;-9.16;65.99;102440.88;1660281;86;21235;-56
2023/01/08 02:43:26;;;;;;;30.77;14.63;;;;;;;-9.16;65.99;102440.88;1680567;82;21274;-57
2023/01/08 02:46:34;;;;;;;28.12;13.58;;;;;;;-9.28;66.18;102436.45;1692841;83;21239;-55
2023/01/08 02:49:41;;;;;;;25.55;13.13;;;;;;;-9.25;66.25;102436.45;1691702;83;21219;-56
2023/01/08 02:53:08;;;;;;;29.40;13.80;;;;;;;-9.27;66.12;102433.37;1691837;83;21247;-56
2023/01/08 02:56:18;;;;;;;29.50;14.30;;;;;;;-9.35;66.12;102431.60;1691874;85;21208;-55
2023/01/08 02:59:23;;;;;;;29.92;12.95;;;;;;;-9.34;66.24;102427.19;1692206;84;21219;-55
2023/01/08 03:02:33;;;;;;;26.57;13.40;;;;;;;-9.26;66.43;102418.79;1691911;84;21219;-56
2023/01/08 03:05:38;;;;;;;30.15;13.90;;;;;;;-9.21;66.49;102426.27;1692153;84;21203;-56
2023/01/08 03:08:49;;;;;;;36.03;14.53;;;;;;;-9.12;66.58;102424.05;1691859;84;21275;-56
2023/01/08 03:12:04;;;;;;;34.18;14.25;;;;;;;-9.12;66.58;102424.05;1691888;84;21595;-55
2023/01/08 03:15:14;;;;;;;34.60;14.53;;;;;;;-9.08;66.58;102429.34;1693047;84;21890;-56
2023/01/08 03:18:21;;;;;;;35.23;13.90;;;;;;;-9.03;66.56;102418.28;1692073;83;21314;-55
2023/01/08 03:21:27;;;;;;;27.37;13.43;;;;;;;-8.97;66.54;102422.23;1691881;84;21263;-55
2023/01/08 03:24:38;;;;;;;33.42;14.90;;;;;;;-8.99;66.40;102422.71;1691903;85;21195;-55
2023/01/08 03:27:46;;;;;;;30.05;14.03;;;;;;;-8.95;66.35;102410.30;1692617;84;21239;-55
2023/01/08 03:30:52;;;;;;;32.83;15.13;;;;;;;-9.05;66.08;102409.44;1691909;83;21255;-55
2023/01/08 03:33:58;;;;;;;30.02;13.38;;;;;;;-9.14;66.10;102412.55;1691668;83;21207;-56
2023/01/08 03:37:06;;;;;;;31.90;14.45;;;;;;;-9.09;66.24;102414.33;1692169;84;21330;-55
2023/01/08 03:40:26;;;;;;;26.25;14.25;;;;;;;-9.06;66.24;102419.63;1691866;85;21251;-55
2023/01/08 03:43:31;;;;;;;29.20;14.20;;;;;;;-9.02;66.32;102421.83;1690243;83;21243;-56
2023/01/08 03:46:38;;;;;;;34.92;14.95;;;;;;;-8.91;66.37;102423.54;1685157;85;21282;-56
2023/01/08 03:49:45;;;;;;;31.27;14.63;;;;;;;-8.85;66.43;102422.66;1688278;85;21251;-56
2023/01/08 03:52:54;;;;;;;23.10;12.25;;;;;;;-8.85;66.43;102422.66;1685191;85;21243;-56
2023/01/08 03:56:00;;;;;;;25.05;13.78;;;;;;;-8.85;66.36;102423.55;1685209;85;21224;-55
2023/01/08 03:59:06;;;;;;;29.90;13.10;;;;;;;-8.93;66.23;102428.42;1685250;85;21260;-56
2023/01/08 04:02:12;;;;;;;25.35;12.68;;;;;;;-8.94;66.32;102418.71;1684250;85;21788;-55
2023/01/08 04:05:19;;;;;;;30.65;12.68;;;;;;;-8.95;66.28;102431.52;1683456;85;21239;-54
2023/01/08 04:08:25;;;;;;;22.35;12.05;;;;;;;-9.00;66.18;102417.38;1685154;85;21227;-55
2023/01/08 04:11:31;;;;;;;24.52;12.23;;;;;;;-9.00;66.18;102417.38;1685118;85;21282;-56
2023/01/08 04:14:36;;;;;;;26.80;13.00;;;;;;;-9.07;66.22;102428.48;1685252;85;21283;-55
2023/01/08 04:17:42;;;;;;;30.02;13.62;;;;;;;-9.08;66.16;102424.50;1685099;85;21294;-56
2023/01/08 04:20:53;;;;;;;23.75;13.08;;;;;;;-9.10;66.25;102430.24;1684980;85;21220;-56
2023/01/08 04:24:00;;;;;;;26.68;12.58;;;;;;;-9.16;65.99;102441.73;1684058;85;21409;-56
2023/01/08 04:27:08;;;;;;;25.25;12.55;;;;;;;-9.26;65.75;102445.73;1683552;85;21251;-56
2023/01/08 04:30:14;;;;;;;25.20;12.45;;;;;;;-9.27;65.86;102445.30;1684823;85;21204;-56
2023/01/08 04:33:19;;;;;;;26.33;12.90;;;;;;;-9.29;66.01;102437.32;1684638;85;21287;-56
2023/01/08 04:36:25;;;;;;;25.72;12.58;;;;;;;-9.30;66.02;102440.88;1684652;85;21323;-55
2023/01/08 04:39:33;;;;;;;31.52;15.15;;;;;;;-9.41;65.86;102442.65;1684955;85;21271;-56
2023/01/08 04:42:38;;;;;;;26.65;13.43;;;;;;;-9.48;65.90;102450.18;1685121;85;21247;-56
2023/01/08 04:45:44;;;;;;;27.50;13.15;;;;;;;-9.46;66.05;102447.95;1685779;84;21278;-56
2023/01/08 04:48:50;;;;;;;25.37;13.75;;;;;;;-9.42;66.18;102450.17;1689326;85;21259;-55
2023/01/08 04:51:57;;;;;;;25.90;13.43;;;;;;;-9.42;66.08;102446.20;1689313;85;21464;-56
2023/01/08 04:55:04;;;;;;;31.52;13.88;;;;;;;-9.47;65.96;102442.66;1689568;83;21227;-55
2023/01/08 04:58:10;;;;;;;27.98;13.10;;;;;;;-9.51;66.01;102444.84;1689445;85;21262;-56
2023/01/08 05:01:27;;;;;;;25.72;11.75;;;;;;;-9.51;66.05;102451.48;1689568;83;21389;-57
2023/01/08 05:04:27;;;;;;;24.82;11.97;;;;;;;-9.57;66.02;102452.80;1691062;83;21252;-56
2023/01/08 05:07:20;;;;;;;26.65;12.20;;;;;;;-9.66;65.94;102462.09;1689761;83;21787;-57
2023/01/08 05:10:09;;;;;;;28.00;11.63;;;;;;;-9.69;66.05;102462.95;1689650;85;21239;-57
2023/01/08 05:13:07;;;;;;;27.93;12.25;;;;;;;-9.70;66.08;102468.25;1689447;83;21247;-57
2023/01/08 05:15:53;;;;;;;27.73;12.78;;;;;;;-9.71;66.09;102474.44;1689586;85;21274;-54
2023/01/08 05:18:59;;;;;;;25.20;12.18;;;;;;;-9.72;66.12;102470.04;1689842;84;21587;-55
2023/01/08 05:22:08;;;;;;;31.25;14.50;;;;;;;-9.73;66.17;102467.82;1708232;83;21725;-55
2023/01/08 05:25:16;;;;;;;25.68;12.03;;;;;;;-9.76;66.06;102471.80;1689481;85;21357;-56
2023/01/08 05:28:21;;;;;;;22.87;11.90;;;;;;;-9.80;65.99;102469.14;1689553;84;21299;-55
2023/01/08 05:31:29;;;;;;;32.63;15.30;;;;;;;-9.95;65.84;102472.64;1689620;83;21227;-55
2023/01/08 05:34:36;;;;;;;26.48;12.30;;;;;;;-10.04;65.83;102478.36;1689596;84;21349;-56
2023/01/08 05:37:43;;;;;;;28.73;13.38;;;;;;;-10.03;66.00;102482.34;1689709;83;21235;-56
2023/01/08 05:40:50;;;;;;;24.37;11.85;;;;;;;-9.99;66.09;102493.83;1689543;85;21336;-55
2023/01/08 05:43:58;;;;;;;32.45;12.88;;;;;;;-10.00;66.03;102496.91;1689370;85;21251;-56
2023/01/08 05:47:06;;;;;;;26.50;14.23;;;;;;;-9.98;66.11;102503.53;1701331;81;21374;-55
2023/01/08 05:50:14;;;;;;;30.12;12.65;;;;;;;-9.95;66.16;102498.23;1701476;84;21229;-54
2023/01/08 05:53:21;;;;;;;28.50;13.32;;;;;;;-9.98;66.09;102500.87;1702304;83;21260;-56
2023/01/08 05:56:26;;;;;;;40.00;12.43;;;;;;;-10.00;66.09;102512.80;1702355;83;21236;-56
2023/01/08 05:59:35;;;;;;;23.83;12.07;;;;;;;-10.00;66.07;102509.25;1685515;84;21256;-55
2023/01/08 06:02:39;;;;;;;29.02;13.88;;;;;;;-10.06;65.96;102509.23;1701578;83;21248;-56
2023/01/08 06:05:48;;;;;;;25.72;11.90;;;;;;;-10.06;65.99;102510.14;1701529;84;21781;-56
2023/01/08 06:08:55;;;;;;;26.23;12.53;;;;;;;-10.04;66.05;102500.87;1701778;84;21212;-55
2023/01/08 06:12:01;;;;;;;33.30;13.70;;;;;;;-10.03;66.08;102498.66;1701926;83;21586;-56
2023/01/08 06:15:06;;;;;;;28.07;13.08;;;;;;;-10.07;65.99;102503.55;1702186;84;21417;-56
2023/01/08 06:18:12;;;;;;;28.05;13.60;;;;;;;-10.01;66.06;102503.52;1702180;83;21244;-56
2023/01/08 06:21:18;;;;;;;33.05;14.10;;;;;;;-9.96;66.13;102496.48;1702592;83;21382;-56
2023/01/08 06:24:24;;;;;;;26.05;13.65;;;;;;;-9.95;66.09;102499.12;1701067;83;21361;-56
2023/01/08 06:27:31;;;;;;;24.47;13.03;;;;;;;-9.93;66.16;102492.08;1702582;83;21355;-56
2023/01/08 06:30:40;;;;;;;25.25;12.75;;;;;;;-9.87;66.28;102499.14;1702542;84;21233;-55
2023/01/08 06:33:47;;;;;;;30.05;13.53;;;;;;;-9.79;66.36;102494.31;1702563;84;21347;-56
2023/01/08 06:36:53;;;;;;;26.15;11.78;;;;;;;-9.70;66.35;102497.39;1702965;83;21180;-55
2023/01/08 06:40:00;;;;;;;24.63;12.88;;;;;;;-9.71;66.21;102493.89;1678160;84;21576;-56
2023/01/08 06:43:10;;;;;;;29.63;14.35;;;;;;;-9.82;65.98;102490.33;1675557;84;21313;-55
2023/01/08 06:46:15;;;;;;;27.52;12.70;;;;;;;-9.90;65.93;102482.81;1675664;85;21228;-55
2023/01/08 06:49:23;;;;;;;28.73;12.82;;;;;;;-9.83;66.10;102485.03;1714818;83;21708;-56
2023/01/08 06:52:31;;;;;;;27.05;12.85;;;;;;;-9.77;66.08;102485.04;1691247;84;21792;-56
2023/01/08 06:55:37;;;;;;;32.38;13.53;;;;;;;-9.82;66.02;102491.66;1691779;84;21275;-56
2023/01/08 06:58:43;;;;;;;21.33;12.07;;;;;;;-9.79;66.00;102498.28;1691490;84;21823;-56
2023/01/08 07:01:50;;;;;;;32.42;14.13;;;;;;;-9.79;65.97;102495.64;1716052;81;21243;-55
2023/01/08 07:04:56;;;;;;;30.57;12.95;;;;;;;-9.74;66.09;102504.48;1720283;83;21737;-56
2023/01/08 07:08:01;;;;;;;26.45;12.55;;;;;;;-9.66;66.01;102503.16;1720286;83;21247;-56
2023/01/08 07:11:12;;;;;;;24.50;12.78;;;;;;;-9.62;66.02;102507.56;1720729;83;21283;-56
2023/01/08 07:14:18;;;;;;;32.73;13.28;;;;;;;-9.55;66.04;102519.52;1720794;83;21247;-55
2023/01/08 07:17:25;;;;;;;26.40;13.55;;;;;;;-9.43;66.07;102514.22;1720860;83;21298;-55
2023/01/08 07:20:31;;;;;;;24.87;12.05;;;;;;;-9.31;66.21;102519.52;1720939;83;21224;-56
2023/01/08 07:23:38;;;;;;;29.98;13.85;;;;;;;-9.19;66.16;102518.64;1720364;83;21216;-56
2023/01/08 07:26:44;;;;;;;26.97;11.63;;;;;;;-9.19;66.01;102514.66;1720386;83;21239;-55
2023/01/08 07:29:49;;;;;;;25.17;13.75;;;;;;;-9.17;65.94;102513.33;1720315;83;21208;-56
2023/01/08 07:32:55;;;;;;;28.02;13.75;;;;;;;-9.14;65.87;102515.55;1720593;83;21286;-55
2023/01/08 07:36:01;;;;;;;24.60;13.13;;;;;;;-9.09;65.98;102515.54;1720447;83;21215;-55
2023/01/08 07:39:07;;;;;;;26.37;12.10;;;;;;;-8.99;66.02;102514.23;1720742;83;21243;-55
2023/01/08 07:42:14;;;;;;;23.77;12.68;;;;;;;-8.88;66.14;102512.44;1721052;83;21291;-56
2023/01/08 07:45:23;;;;;;;26.42;13.50;;;;;;;-8.76;66.16;102511.52;1720881;83;21216;-56
2023/01/08 07:48:29;;;;;;;22.95;12.40;;;;;;;-8.69;66.08;102522.57;1702860;81;21240;-56
2023/01/08 07:51:37;;;;;;;25.25;11.90;;;;;;;-8.69;66.08;102522.57;1657799;86;21255;-55
2023/01/08 07:54:44;;;;;;;27.07;12.43;;;;;;;-8.69;65.76;102515.50;1657667;85;21255;-56
2023/01/08 07:57:50;;;;;;;39.73;17.23;;;;;;;-8.71;65.39;102519.02;1657935;85;21231;-56
2023/01/08 08:00:57;;;;;;;37.63;16.02;;;;;;;-8.71;65.39;102519.02;1676660;83;21634;-56
2023/01/08 08:04:02;;;;;;;39.05;16.25;;;;;;;-8.70;65.55;102519.02;1673192;83;21320;-56
2023/01/08 08:07:08;;;;;;;41.70;18.15;;;;;;;-8.76;65.41;102512.84;1681421;85;21303;-56
2023/01/08 08:10:13;;;;;;;41.48;15.48;;;;;;;-8.82;65.35;102527.45;1683990;84;21312;-56
2023/01/08 08:13:19;;;;;;;51.53;22.73;;;;;;;-8.80;65.48;102527.88;1681557;84;21221;-55
2023/01/08 08:16:27;;;;;;;65.57;21.40;;;;;;;-8.80;65.48;102527.88;1683813;84;21270;-55
2023/01/08 08:19:32;;;;;;;34.38;14.43;;;;;;;-8.58;65.57;102526.97;1686317;84;21240;-55
2023/01/08 08:22:38;;;;;;;25.00;12.33;;;;;;;-8.58;65.57;102526.97;1684203;84;21819;-56
2023/01/08 08:25:43;;;;;;;21.45;10.35;;;;;;;-8.53;65.68;102525.63;1684190;84;21204;-57
2023/01/08 08:28:48;;;;;;;25.25;11.35;;;;;;;-8.37;65.84;102516.73;1684734;84;21231;-56
2023/01/08 08:31:54;;;;;;;18.25;10.48;;;;;;;-8.25;65.91;102516.67;1685145;85;21247;-56
2023/01/08 08:35:00;;;;;;;26.40;12.33;;;;;;;-8.23;65.79;102519.74;1686955;85;21362;-54
2023/01/08 08:38:08;;;;;;;22.77;12.05;;;;;;;-8.19;65.88;102505.98;1722635;82;21229;-56
2023/01/08 08:41:15;;;;;;;28.27;11.45;;;;;;;-8.11;65.89;102496.20;1691562;85;21218;-55
2023/01/08 08:44:21;;;;;;;23.45;12.40;;;;;;;-8.14;65.69;102503.76;1744583;81;21206;-57
2023/01/08 08:47:29;;;;;;;32.70;13.38;;;;;;;-8.18;65.61;102505.11;1722212;82;21229;-56
2023/01/08 08:50:39;;;;;;;34.80;15.08;;;;;;;-8.15;65.63;102500.64;1756991;81;21359;-56
2023/01/08 08:53:46;;;;;;;22.75;10.28;;;;;;;-8.04;65.83;102493.50;1706827;84;21272;-55
2023/01/08 08:56:51;;;;;;;28.60;10.90;;;;;;;-7.81;66.17;102498.26;1720235;82;21370;-57
2023/01/08 08:59:59;;;;;;;25.92;11.93;;;;;;;-7.68;66.06;102500.39;1682737;84;21579;-56
2023/01/08 09:03:06;;;;;;;24.27;11.30;;;;;;;-7.65;65.90;102494.16;1720128;83;21775;-55
2023/01/08 09:06:19;;;;;;;26.33;12.00;;;;;;;-7.59;65.79;102482.17;1669320;84;21861;-55
2023/01/08 09:09:25;;;;;;;26.55;12.35;;;;;;;-7.57;65.71;102489.23;1684249;84;21393;-56
2023/01/08 09:12:32;;;;;;;21.05;10.82;;;;;;;-7.53;65.65;102486.11;1719560;83;21508;-56
2023/01/08 09:15:37;;;;;;;18.85;10.25;;;;;;;-7.47;65.71;102468.77;1756019;81;21240;-55
2023/01/08 09:18:47;;;;;;;19.73;10.30;;;;;;;-7.37;65.74;102473.14;1706182;83;21232;-55
2023/01/08 09:21:52;;;;;;;19.65;10.18;;;;;;;-7.35;65.72;102472.66;1719965;82;21300;-56
2023/01/08 09:24:57;;;;;;;18.35;8.90;;;;;;;-7.28;65.77;102473.05;1699393;83;21189;-54
2023/01/08 09:28:11;;;;;;;23.20;10.68;;;;;;;-7.31;65.53;102469.09;1709067;82;21806;-55
2023/01/08 09:31:17;;;;;;;20.17;10.85;;;;;;;-7.31;65.56;102464.66;1699858;83;21782;-55
2023/01/08 09:34:25;;;;;;;25.90;11.73;;;;;;;-7.22;65.62;102463.23;1720060;83;21225;-55
2023/01/08 09:37:31;;;;;;;22.35;10.75;;;;;;;-7.21;65.55;102452.12;1696917;81;21770;-55
2023/01/08 09:40:48;;;;;;;30.37;11.83;;;;;;;-7.17;65.52;102456.55;1698818;84;21221;-55
2023/01/08 09:43:57;;;;;;;26.15;10.43;;;;;;;-7.16;65.53;102466.27;1697537;84;21198;-55
2023/01/08 09:47:05;;;;;;;27.55;11.08;;;;;;;-7.09;65.67;102467.56;1728810;82;21276;-55
2023/01/08 09:50:12;;;;;;;20.82;10.58;;;;;;;-7.02;65.67;102457.27;1730243;82;21217;-56
2023/01/08 09:53:21;;;;;;;25.12;10.85;;;;;;;-6.91;65.80;102465.17;1714688;83;21284;-55
2023/01/08 09:56:26;;;;;;;23.62;11.03;;;;;;;-6.91;65.66;102465.17;1719989;82;22035;-56
2023/01/08 09:59:34;;;;;;;26.40;12.15;;;;;;;-6.84;65.67;102469.52;1770811;80;21843;-56
2023/01/08 10:02:41;;;;;;;21.57;10.38;;;;;;;-6.78;65.59;102456.13;1704628;84;21233;-56
2023/01/08 10:05:48;;;;;;;25.12;10.68;;;;;;;-6.66;65.65;102462.67;1729898;82;21347;-57
2023/01/08 10:08:53;;;;;;;23.35;11.12;;;;;;;-6.59;65.59;102459.02;1711634;82;21582;-56
2023/01/08 10:11:58;;;;;;;25.62;10.00;;;;;;;-6.55;65.43;102459.44;1672964;85;21236;-57
2023/01/08 10:15:13;;;;;;;21.73;9.80;;;;;;;-6.59;65.21;102451.92;1744201;82;21784;-57
2023/01/08 10:18:20;;;;;;;24.32;9.25;;;;;;;-6.55;65.32;102446.13;1711145;82;21236;-57
2023/01/08 10:21:28;;;;;;;20.00;9.13;;;;;;;-6.53;65.28;102462.94;1700417;84;21876;-56
2023/01/08 10:24:42;;;;;;;23.12;10.32;;;;;;;-6.52;65.29;102465.62;1701012;83;21338;-56
2023/01/08 10:28:06;;;;;;;19.32;9.33;;;;;;;-6.45;65.41;102462.41;1692608;84;21236;-55
2023/01/08 10:31:17;;;;;;;24.20;9.10;;;;;;;-6.28;65.69;102451.11;1706469;83;21230;-56
2023/01/08 10:35:01;;;;;;;26.55;9.60;;;;;;;-6.01;66.01;102440.52;1687268;84;21309;-57
2023/01/08 10:38:10;;;;;;;20.97;8.58;;;;;;;-5.85;65.93;102438.92;1696956;82;21785;-56
2023/01/08 10:41:18;;;;;;;26.90;10.93;;;;;;;-5.85;65.67;102426.92;1694466;82;21870;-55
2023/01/08 10:44:24;;;;;;;26.57;10.98;;;;;;;-5.88;65.46;102432.30;1698964;84;21773;-55
2023/01/08 10:47:31;;;;;;;19.73;9.30;;;;;;;-5.79;65.42;102430.83;1699029;84;21241;-56
2023/01/08 10:50:39;;;;;;;18.95;9.95;;;;;;;-5.72;65.34;102427.62;1701505;84;21197;-56
2023/01/08 10:53:44;;;;;;;16.77;8.55;;;;;;;-5.80;65.17;102439.70;1699454;84;21261;-56
2023/01/08 10:56:51;;;;;;;15.60;8.28;;;;;;;-5.73;65.34;102438.72;1701400;84;21229;-57
2023/01/08 10:59:58;;;;;;;24.57;10.43;;;;;;;-5.69;65.33;102432.42;1698900;84;21213;-57
2023/01/08 11:03:08;;;;;;;19.55;8.98;;;;;;;-5.66;65.29;102428.38;1758354;81;21579;-57
2023/01/08 11:06:22;;;;;;;16.82;8.68;;;;;;;-5.62;65.26;102434.11;1707636;83;21395;-57
2023/01/08 11:09:33;;;;;;;25.85;11.97;;;;;;;-5.45;65.50;102420.47;1758517;81;21236;-57
2023/01/08 11:12:46;;;;;;;21.30;9.40;;;;;;;-5.23;65.64;102420.56;1693489;83;21239;-56
2023/01/08 11:15:53;;;;;;;20.37;8.85;;;;;;;-5.12;65.52;102404.76;1722843;82;21205;-55
2023/01/08 11:19:00;;;;;;;36.25;13.83;;;;;;;-5.12;65.36;102398.56;1700037;84;21344;-56
2023/01/08 11:22:30;;;;;;;21.52;9.13;;;;;;;-5.19;65.10;102401.80;1700300;84;21352;-56
2023/01/08 11:25:38;;;;;;;21.17;10.50;;;;;;;-5.13;65.37;102399.45;1679270;84;21344;-56
2023/01/08 11:29:24;;;;;;;27.22;9.88;;;;;;;-5.16;65.00;102408.41;1699884;84;21365;-55
2023/01/08 11:33:14;;;;;;;20.70;9.88;;;;;;;-5.19;65.04;102404.46;1700299;84;21224;-56
2023/01/08 11:36:28;;;;;;;30.00;12.75;;;;;;;-5.17;65.03;102391.95;1663839;84;21368;-55
2023/01/08 11:39:36;;;;;;;31.05;11.18;;;;;;;-5.02;65.23;102399.69;1710334;78;21213;-55
2023/01/08 11:43:01;;;;;;;21.30;9.78;;;;;;;-4.97;65.05;102392.92;1730609;83;21209;-56
2023/01/08 11:46:25;;;;;;;22.48;9.33;;;;;;;-4.98;64.98;102386.69;1729973;83;21730;-55
2023/01/08 11:49:43;;;;;;;21.73;9.55;;;;;;;-4.98;64.95;102381.34;1729459;83;21197;-56
2023/01/08 11:53:34;;;;;;;21.50;9.75;;;;;;;-4.99;64.87;102384.94;1729595;83;21221;-55
2023/01/08 11:56:53;;;;;;;;;;;;;;;-4.95;64.82;102383.09;1732530;82;21261;-54
2023/01/08 12:00:07;;;;;;;19.27;9.43;;;;;;;-4.93;64.78;102391.48;1730402;82;20213;-56
2023/01/08 12:03:32;;;;;;;15.40;7.20;;;;;;;-5.00;64.61;102387.20;1691780;82;21296;-55
2023/01/08 12:07:05;;;;;;;25.85;11.55;;;;;;;-5.03;64.54;102383.70;1667699;84;21285;-56
2023/01/08 12:10:36;;;;;;;22.90;10.82;;;;;;;-5.04;64.71;102385.47;1733709;82;21224;-56
2023/01/08 12:13:59;;;;;;;16.20;8.40;;;;;;;-4.84;65.06;102377.98;1655909;85;21224;-55
2023/01/08 12:17:37;;;;;;;18.12;9.30;;;;;;;-4.67;65.09;102380.30;1661553;86;21214;-55
2023/01/08 12:20:59;;;;;;;19.30;9.75;;;;;;;-4.54;65.00;102382.25;1694374;83;21761;-54
2023/01/08 12:24:48;;;;;;;28.07;10.08;;;;;;;-4.46;64.87;102389.66;1687807;83;21290;-54
2023/01/08 12:28:24;;;;;;;15.05;7.25;;;;;;;-4.38;64.78;102385.03;1728962;82;21216;-54
2023/01/08 12:32:08;;;;;;;23.15;9.63;;;;;;;-4.33;64.60;102393.83;1728001;82;21652;-56
2023/01/08 12:35:35;;;;;;;19.35;9.15;;;;;;;-4.32;64.57;102402.27;1728925;83;21229;-55
2023/01/08 12:38:53;;;;;;;14.50;7.97;;;;;;;-4.26;64.56;102396.78;1696108;84;21305;-56
2023/01/08 12:41:59;;;;;;;21.35;11.75;;;;;;;-4.21;64.59;102405.58;1719056;80;21743;-56
2023/01/08 12:45:06;;;;;;;18.57;10.78;;;;;;;-4.17;64.53;102386.77;1715784;82;21236;-56
2023/01/08 12:48:27;;;;;;;25.95;12.05;;;;;;;-4.09;64.75;102386.61;1735633;82;21228;-56
2023/01/08 12:51:41;;;;;;;15.83;8.98;;;;;;;-3.95;64.67;102393.86;1735664;82;21581;-56
2023/01/08 12:55:25;;;;;;;17.62;8.10;;;;;;;-3.99;64.30;102380.12;1730361;82;21188;-56
2023/01/08 12:58:54;;;;;;;19.92;9.80;;;;;;;-3.98;64.43;102387.24;1736592;82;21773;-56
2023/01/08 13:02:42;;;;;;;16.95;9.25;;;;;;;-3.97;64.32;102378.30;1737771;82;21371;-55
2023/01/08 13:05:49;;;;;;;22.73;9.40;;;;;;;-3.92;64.51;102380.41;1702718;83;21366;-56
2023/01/08 13:08:59;;;;;;;25.72;10.93;;;;;;;-3.88;64.45;102382.97;1681619;85;21725;-56
2023/01/08 13:12:06;;;;;;;23.57;10.55;;;;;;;-3.87;64.27;102384.72;1680358;85;21303;-56
2023/01/08 13:15:13;;;;;;;28.23;12.98;;;;;;;-4.01;64.06;102386.84;1681498;85;21284;-56
2023/01/08 13:18:28;;;;;;;24.47;11.57;;;;;;;-4.05;64.00;102386.95;1681432;85;21331;-55
2023/01/08 13:21:46;;;;;;;21.93;10.25;;;;;;;-4.09;64.04;102391.96;1680492;85;21264;-55
2023/01/08 13:24:54;;;;;;;24.10;11.35;;;;;;;-4.09;64.12;102391.96;1681075;85;21220;-55
2023/01/08 13:28:01;;;;;;;19.27;9.23;;;;;;;-4.12;64.08;102393.38;1681329;85;21256;-56
2023/01/08 13:31:29;;;;;;;22.80;10.78;;;;;;;-4.17;64.02;102397.94;1704405;82;21251;-55
2023/01/08 13:34:45;;;;;;;22.07;9.68;;;;;;;-4.31;63.90;102406.72;1723283;82;21230;-55
2023/01/08 13:37:58;;;;;;;24.72;11.12;;;;;;;-4.50;63.67;102403.53;1709975;84;21663;-56
2023/01/08 13:41:03;;;;;;;27.42;12.05;;;;;;;-4.72;63.50;102400.42;1734701;82;21826;-54
2023/01/08 13:44:34;;;;;;;19.77;9.95;;;;;;;-4.85;63.66;102398.90;1677162;85;21295;-56
2023/01/08 13:47:41;;;;;;;20.40;10.48;;;;;;;-4.93;63.80;102390.16;1692033;84;21789;-56
2023/01/08 13:50:47;;;;;;;20.40;10.13;;;;;;;-5.09;63.69;102398.50;1678102;84;21766;-56
2023/01/08 13:53:55;;;;;;;22.45;8.93;;;;;;;-5.20;63.72;102397.81;1678670;84;21602;-56
2023/01/08 13:57:02;;;;;;;17.55;8.35;;;;;;;-5.27;63.83;102392.15;1692667;84;21714;-56
2023/01/08 14:00:08;;;;;;;20.50;9.13;;;;;;;-5.33;63.93;102386.48;1660154;85;21983;-59
2023/01/08 14:03:12;;;;;;;17.75;8.78;;;;;;;-5.39;63.91;102389.23;1650317;87;21300;-56
2023/01/08 14:06:27;;;;;;;26.40;11.73;;;;;;;-5.48;63.84;102392.07;1679435;84;21850;-56
2023/01/08 14:09:32;;;;;;;26.93;11.28;;;;;;;-5.59;63.71;102387.38;1713495;83;21793;-56
2023/01/08 14:12:37;;;;;;;18.17;9.25;;;;;;;-5.70;63.62;102391.11;1673870;85;21284;-56
2023/01/08 14:15:43;;;;;;;16.85;8.05;;;;;;;-5.81;63.62;102389.07;1681094;83;21236;-56
2023/01/08 14:18:52;;;;;;;16.20;7.62;;;;;;;-5.89;63.68;102387.90;1657543;85;21532;-56
2023/01/08 14:22:06;;;;;;;16.60;9.33;;;;;;;-5.98;63.55;102398.72;1680649;85;21233;-56
2023/01/08 14:25:13;;;;;;;23.60;11.35;;;;;;;-6.11;63.44;102396.23;1672953;84;21236;-56
2023/01/08 14:28:24;;;;;;;39.73;11.80;;;;;;;-6.19;63.42;102396.35;1686962;82;21240;-56